createdAt,value
2023-04-04T00:00:30.274Z,3.28
2023-04-04T00:02:57.695Z,3.65
2023-04-04T00:05:24.337Z,2.97
2023-04-04T00:07:50.969Z,3.05
2023-04-04T00:10:18.782Z,2.88
2023-04-04T00:12:46.674Z,2.72
2023-04-04T00:15:13.373Z,3.00
2023-04-04T00:17:40.766Z,3.00
2023-04-04T00:20:07.810Z,3.00
2023-04-04T00:22:34.423Z,2.88
2023-04-04T00:25:02.803Z,2.60
2023-04-04T00:27:29.361Z,3.00
2023-04-04T00:29:56.005Z,3.00
2023-04-04T00:32:24.264Z,2.92
2023-04-04T00:34:54.180Z,3.00
2023-04-04T00:37:21.621Z,2.78
2023-04-04T00:39:48.503Z,2.88
2023-04-04T00:42:15.153Z,2.65
2023-04-04T00:44:41.795Z,2.80
2023-04-04T00:47:08.421Z,3.10
2023-04-04T00:49:35.016Z,3.35
2023-04-04T00:52:01.650Z,3.05
2023-04-04T00:54:30.077Z,2.95
2023-04-04T00:56:56.797Z,3.83
2023-04-04T00:59:26.167Z,3.28
2023-04-04T01:01:53.765Z,3.17
2023-04-04T01:04:20.657Z,3.17
2023-04-04T01:06:47.347Z,3.53
2023-04-04T01:09:14.176Z,3.22
2023-04-04T01:11:40.852Z,3.65
2023-04-04T01:14:07.552Z,4.70
2023-04-04T01:16:36.251Z,4.32
2023-04-04T01:19:06.761Z,5.00
2023-04-04T01:21:34.481Z,4.85
2023-04-04T01:24:06.800Z,4.70
2023-04-04T01:26:33.377Z,4.78
2023-04-04T01:29:00.149Z,4.47
2023-04-04T01:31:37.408Z,4.35
2023-04-04T01:34:32.046Z,4.10
2023-04-04T01:37:11.566Z,4.38
2023-04-04T01:39:53.598Z,4.53
2023-04-04T01:42:21.288Z,3.90
2023-04-04T01:44:48.003Z,4.47
2023-04-04T01:47:14.594Z,4.70
2023-04-04T01:49:44.693Z,4.93
2023-04-04T01:52:11.274Z,4.55
2023-04-04T01:54:37.895Z,4.28
2023-04-04T01:57:04.560Z,4.43
2023-04-04T01:59:31.198Z,3.92
2023-04-04T02:01:58.254Z,3.80
2023-04-04T02:04:26.126Z,4.28
2023-04-04T02:06:52.895Z,4.70
2023-04-04T02:09:19.492Z,4.75
2023-04-04T02:11:46.103Z,5.70
2023-04-04T02:14:12.852Z,5.03
2023-04-04T02:16:39.432Z,6.43
2023-04-04T02:19:06.013Z,5.68
2023-04-04T02:21:32.547Z,6.28
2023-04-04T02:23:59.091Z,6.40
2023-04-04T02:26:26.243Z,5.10
2023-04-04T02:28:52.798Z,4.47
2023-04-04T02:31:20.235Z,4.20
2023-04-04T02:33:48.617Z,3.88
2023-04-04T02:36:15.516Z,4.05
2023-04-04T02:38:42.195Z,4.70
2023-04-04T02:41:08.845Z,4.78
2023-04-04T02:43:35.432Z,5.85
2023-04-04T02:46:14.459Z,5.18
2023-04-04T02:48:48.208Z,5.05
2023-04-04T02:51:14.828Z,4.20
2023-04-04T02:53:41.463Z,4.90
2023-04-04T02:56:08.395Z,5.30
2023-04-04T02:58:35.110Z,5.85
2023-04-04T03:01:01.768Z,6.65
2023-04-04T03:03:28.717Z,6.68
2023-04-04T03:05:55.475Z,6.90
2023-04-04T03:08:22.597Z,6.55
2023-04-04T03:10:49.217Z,5.40
2023-04-04T03:13:18.172Z,5.85
2023-04-04T03:15:47.496Z,5.10
2023-04-04T03:18:15.140Z,4.85
2023-04-04T03:20:42.065Z,4.68
2023-04-04T03:23:08.808Z,5.50
2023-04-04T03:25:36.366Z,4.82
2023-04-04T03:28:10.271Z,4.43
2023-04-04T03:30:40.184Z,4.70
2023-04-04T03:33:07.699Z,4.40
2023-04-04T03:35:38.805Z,4.88
2023-04-04T03:38:06.040Z,4.90
2023-04-04T03:40:32.706Z,4.82
2023-04-04T03:42:59.258Z,4.40
2023-04-04T03:45:26.658Z,4.13
2023-04-04T03:47:53.280Z,3.70
2023-04-04T03:50:19.876Z,4.18
2023-04-04T03:52:48.313Z,4.63
2023-04-04T03:55:14.995Z,4.80
2023-04-04T03:57:41.668Z,4.55
2023-04-04T04:00:09.461Z,4.80
2023-04-04T04:02:36.106Z,4.47
2023-04-04T04:05:03.833Z,4.18
2023-04-04T04:07:30.445Z,5.88
2023-04-04T04:09:56.996Z,4.57
2023-04-04T04:12:23.808Z,4.43
2023-04-04T04:14:50.404Z,4.32
2023-04-04T04:17:16.957Z,4.88
2023-04-04T04:19:43.549Z,4.47
2023-04-04T04:22:10.429Z,4.57
2023-04-04T04:24:37.027Z,5.03
2023-04-04T04:27:03.695Z,5.05
2023-04-04T18:26:07.101Z,14.10
2023-04-04T18:28:36.573Z,11.55
2023-04-04T18:31:03.239Z,10.30
2023-04-04T18:33:30.721Z,15.20
2023-04-04T18:36:00.053Z,14.02
2023-04-04T18:38:28.019Z,14.85
2023-04-04T18:40:58.344Z,15.27
2023-04-04T18:43:27.585Z,13.85
2023-04-04T18:45:55.148Z,12.20
2023-04-04T18:48:27.693Z,10.18
2023-04-04T18:50:54.871Z,11.27
2023-04-04T18:53:21.541Z,8.80
2023-04-04T18:55:49.297Z,10.50
2023-04-04T18:58:16.057Z,8.98
2023-04-04T19:00:45.052Z,11.73
2023-04-04T19:03:13.398Z,9.32
2023-04-04T19:05:41.369Z,11.98
2023-04-04T19:08:10.901Z,11.93
2023-04-04T19:10:39.094Z,12.63
2023-04-04T19:13:06.311Z,10.82
2023-04-04T19:15:34.228Z,13.45
2023-04-04T19:18:00.834Z,15.20
2023-04-04T19:20:27.468Z,17.90
2023-04-04T19:22:54.048Z,15.55
2023-04-04T19:25:22.171Z,16.13
2023-04-04T19:27:48.765Z,16.15
2023-04-04T19:30:42.565Z,16.48
2023-04-04T19:33:16.820Z,16.05
2023-04-04T19:35:48.531Z,14.50
2023-04-04T19:38:21.795Z,13.80
2023-04-04T19:40:50.597Z,13.52
2023-04-04T19:43:20.488Z,12.82
2023-04-04T19:45:53.627Z,12.68
2023-04-04T19:48:55.805Z,16.13
2023-04-04T19:51:23.124Z,14.43
2023-04-04T19:53:54.616Z,13.70
2023-04-04T19:56:23.475Z,13.00
2023-04-04T19:59:01.902Z,12.50
2023-04-04T20:01:32.907Z,13.45
2023-04-04T20:04:10.311Z,12.10
2023-04-04T20:06:40.001Z,12.68
2023-04-04T20:09:32.136Z,11.95
2023-04-04T20:11:58.745Z,8.85
2023-04-04T20:14:25.530Z,8.02
2023-04-04T20:16:52.466Z,8.07
2023-04-04T20:19:20.895Z,8.23
2023-04-04T20:21:48.561Z,8.18
2023-04-04T20:24:19.239Z,9.50
2023-04-04T20:26:52.017Z,10.07
2023-04-04T20:29:21.887Z,10.48
2023-04-04T20:32:00.288Z,11.18
2023-04-04T20:34:39.177Z,23.02
2023-04-04T20:37:12.279Z,20.33
2023-04-04T20:39:45.191Z,16.98
2023-04-04T20:42:19.195Z,12.73
2023-04-04T20:44:46.937Z,11.75
2023-04-04T20:47:51.261Z,12.05
2023-04-04T20:50:20.715Z,12.57
2023-04-04T20:52:50.504Z,15.27
2023-04-04T20:55:22.620Z,13.50
2023-04-04T20:57:50.828Z,12.75
2023-04-04T21:00:29.726Z,14.20
2023-04-04T21:02:58.328Z,16.75
2023-04-04T21:05:29.669Z,36.47
2023-04-04T21:07:56.959Z,34.92
2023-04-04T21:10:29.634Z,31.77
2023-04-04T21:13:03.389Z,16.52
2023-04-04T21:15:33.662Z,14.68
2023-04-04T21:18:06.563Z,14.35
2023-04-04T21:20:48.220Z,13.80
2023-04-04T21:23:26.784Z,15.15
2023-04-04T21:25:59.635Z,28.63
2023-04-04T21:28:30.887Z,21.90
2023-04-04T21:30:57.719Z,15.77
2023-04-04T21:33:24.420Z,15.65
2023-04-04T21:35:53.553Z,20.10
2023-04-04T21:38:33.215Z,49.88
2023-04-04T21:41:21.684Z,40.47
2023-04-04T21:43:48.384Z,18.33
2023-04-04T21:46:14.987Z,17.15
2023-04-04T21:48:44.439Z,13.43
2023-04-04T21:51:11.160Z,15.85
2023-04-04T21:53:37.689Z,14.73
2023-04-04T21:56:04.669Z,14.82
2023-04-04T21:58:31.290Z,13.48
2023-04-04T22:00:57.862Z,12.45
2023-04-04T22:03:26.418Z,12.57
2023-04-04T22:05:53.025Z,12.82
2023-04-04T22:08:19.669Z,12.30
2023-04-04T22:10:46.421Z,13.73
2023-04-04T22:13:19.942Z,13.48
2023-04-04T22:15:48.468Z,14.55
2023-04-04T22:18:16.457Z,15.00
2023-04-04T22:20:45.019Z,15.60
2023-04-04T22:23:13.727Z,14.02
2023-04-04T22:25:41.150Z,14.48
2023-04-04T22:28:09.272Z,15.20
2023-04-04T22:30:44.231Z,15.60
2023-04-04T22:33:12.007Z,18.50
2023-04-04T22:35:39.611Z,17.95
2023-04-04T22:38:06.720Z,16.15
2023-04-04T22:40:34.278Z,17.02
2023-04-04T22:43:01.570Z,15.60
2023-04-04T22:45:29.769Z,16.33
2023-04-04T22:47:58.039Z,15.55
2023-04-04T22:50:25.123Z,14.65
2023-04-04T22:52:55.755Z,14.23
2023-04-04T22:55:25.096Z,15.20
2023-04-04T22:57:51.897Z,15.63
2023-04-04T23:00:20.550Z,15.43
2023-04-04T23:02:49.400Z,16.77
2023-04-04T23:05:17.899Z,17.85
2023-04-04T23:07:46.134Z,16.65
2023-04-04T23:10:14.841Z,18.00
2023-04-04T23:12:41.563Z,18.13
2023-04-04T23:15:08.800Z,18.52
2023-04-04T23:17:36.323Z,26.30
2023-04-04T23:20:09.387Z,101.15
2023-04-04T23:22:37.582Z,91.22
2023-04-04T23:25:07.786Z,79.82
2023-04-04T23:27:34.993Z,61.45
2023-04-04T23:30:04.881Z,48.20
2023-04-04T23:32:33.547Z,17.50
2023-04-04T23:35:00.368Z,16.55
2023-04-04T23:37:26.986Z,16.90
2023-04-04T23:39:53.579Z,16.42
2023-04-04T23:42:20.301Z,15.43
2023-04-04T23:44:46.913Z,16.77
2023-04-04T23:47:13.823Z,21.13
2023-04-04T23:49:40.866Z,15.98
2023-04-04T23:52:07.561Z,14.15
2023-04-04T23:54:34.219Z,13.35
2023-04-04T23:57:00.901Z,12.80
2023-04-04T23:59:27.641Z,11.70
